createdAt,value
2022-09-28T00:00:47.488Z,99.9
2022-09-28T00:05:49.418Z,99.9
2022-09-28T00:10:51.582Z,99.9
2022-09-28T00:15:53.585Z,99.9
2022-09-28T00:20:55.533Z,99.9
2022-09-28T00:25:57.858Z,99.9
2022-09-28T00:30:59.804Z,99.9
2022-09-28T00:36:01.741Z,99.9
2022-09-28T00:41:03.822Z,99.9
2022-09-28T00:46:06.543Z,99.9
2022-09-28T00:51:08.925Z,99.9
2022-09-28T00:56:10.784Z,99.9
2022-09-28T01:01:13.496Z,99.9
2022-09-28T01:06:15.423Z,99.9
2022-09-28T01:11:17.305Z,99.9
2022-09-28T01:16:19.584Z,99.9
2022-09-28T01:21:21.949Z,99.9
2022-09-28T01:26:23.949Z,99.9
2022-09-28T01:31:26.403Z,99.9
2022-09-28T01:36:28.390Z,99.9
2022-09-28T01:41:30.276Z,99.9
2022-09-28T01:51:33.911Z,99.9
2022-09-28T01:56:36.136Z,99.9
2022-09-28T02:01:38.166Z,99.9
2022-09-28T02:06:40.244Z,99.9
2022-09-28T02:11:42.395Z,99.9
2022-09-28T02:16:45.140Z,99.9
2022-09-28T02:21:47.069Z,99.9
2022-09-28T02:26:49.091Z,99.9
2022-09-28T02:31:51.742Z,99.9
2022-09-28T02:36:53.608Z,99.9
2022-09-28T02:41:55.555Z,99.9
2022-09-28T02:46:57.649Z,99.9
2022-09-28T02:51:59.848Z,99.9
2022-09-28T02:57:01.757Z,99.9
2022-09-28T03:02:04.540Z,99.9
2022-09-28T03:07:06.510Z,99.9
2022-09-28T03:12:08.431Z,99.9
2022-09-28T03:17:10.320Z,99.9
2022-09-28T03:22:12.439Z,99.9
2022-09-28T03:27:14.596Z,99.9
2022-09-28T03:32:16.716Z,99.9
2022-09-28T03:37:18.666Z,99.9
2022-09-28T03:42:20.607Z,99.9
2022-09-28T03:47:22.564Z,99.9
2022-09-28T03:52:24.550Z,99.9
2022-09-28T03:57:26.441Z,99.9
2022-09-28T04:02:29.204Z,99.9
2022-09-28T04:07:33.821Z,99.9
2022-09-28T04:12:35.839Z,99.9
2022-09-28T04:17:42.673Z,99.9
2022-09-28T04:22:44.802Z,99.9
2022-09-28T04:27:46.749Z,99.9
2022-09-28T04:32:48.883Z,99.9
2022-09-28T04:37:50.813Z,99.9
2022-09-28T04:42:52.919Z,99.9
2022-09-28T04:47:55.533Z,99.9
2022-09-28T04:52:57.735Z,99.9
2022-09-28T04:58:01.033Z,99.9
2022-09-28T05:03:03.065Z,99.9
2022-09-28T05:08:05.072Z,99.9
2022-09-28T05:13:07.198Z,99.9
2022-09-28T05:18:09.150Z,99.9
2022-09-28T05:23:11.133Z,99.9
2022-09-28T05:28:13.030Z,99.9
2022-09-28T05:33:14.851Z,99.9
2022-09-28T05:38:17.057Z,99.9
2022-09-28T05:43:19.081Z,99.9
2022-09-28T05:48:21.116Z,99.9
2022-09-28T05:53:23.306Z,99.9
2022-09-28T05:58:25.448Z,99.9
2022-09-28T06:03:27.543Z,99.9
2022-09-28T06:08:29.548Z,99.9
2022-09-28T06:13:32.620Z,99.9
2022-09-28T06:18:34.639Z,99.9
2022-09-28T06:23:36.541Z,99.9
2022-09-28T06:28:38.488Z,99.9
2022-09-28T06:33:40.617Z,99.9
2022-09-28T06:38:42.551Z,99.9
2022-09-28T06:43:44.526Z,99.9
2022-09-28T06:48:46.541Z,99.9
2022-09-28T06:53:48.703Z,99.9
2022-09-28T06:58:50.764Z,99.9
2022-09-28T07:03:58.009Z,99.9
2022-09-28T07:14:03.736Z,99.9
2022-09-28T07:19:05.812Z,99.9
2022-09-28T07:24:07.694Z,99.9
2022-09-28T07:29:09.877Z,99.9
2022-09-28T07:34:12.631Z,99.9
2022-09-28T07:39:14.646Z,99.9
2022-09-28T07:44:16.905Z,99.9
2022-09-28T07:49:19.870Z,99.9
2022-09-28T07:54:22.021Z,99.9
2022-09-28T07:59:23.923Z,99.9
2022-09-28T08:04:25.835Z,99.9
2022-09-28T08:09:27.806Z,99.9
2022-09-28T08:14:29.745Z,99.9
2022-09-28T08:19:31.858Z,99.9
2022-09-28T08:24:33.760Z,99.9
2022-09-28T08:29:35.718Z,99.9
2022-09-28T08:39:38.156Z,99.9
2022-09-28T08:44:40.304Z,99.9
2022-09-28T08:49:43.076Z,99.9
2022-09-28T08:54:45.192Z,99.9
2022-09-28T09:04:47.516Z,99.9
2022-09-28T09:09:49.424Z,99.9
2022-09-28T09:14:51.320Z,99.9
2022-09-28T09:19:53.655Z,99.9
2022-09-28T09:24:55.648Z,99.9
2022-09-28T09:29:57.598Z,99.9
2022-09-28T09:34:59.959Z,99.3
2022-09-28T09:40:01.890Z,99.4
2022-09-28T09:45:04.381Z,96.8
2022-09-28T09:50:11.220Z,95.1
2022-09-28T09:55:13.510Z,94.3
2022-09-28T10:00:15.531Z,94.8
2022-09-28T10:05:17.550Z,95.1
2022-09-28T10:10:19.571Z,95.1
2022-09-28T10:20:22.432Z,93.5
2022-09-28T10:25:24.409Z,93.5
2022-09-28T10:30:26.334Z,92.6
2022-09-28T10:35:28.624Z,95
2022-09-28T10:40:30.837Z,94.1
2022-09-28T10:45:32.751Z,94.2
2022-09-28T10:50:34.862Z,95.6
2022-09-28T10:55:37.074Z,96.9
2022-09-28T11:00:39.113Z,96.1
2022-09-28T11:05:40.952Z,97.3
2022-09-28T11:10:42.966Z,96.8
2022-09-28T11:15:44.910Z,96.3
2022-09-28T11:20:48.271Z,96.7
2022-09-28T11:25:50.301Z,96.6
2022-09-28T11:30:53.024Z,95.9
2022-09-28T11:35:55.796Z,97
2022-09-28T11:40:58.496Z,97.3
2022-09-28T11:46:00.757Z,96.9
2022-09-28T11:51:03.498Z,98.3
2022-09-28T12:01:13.392Z,98.2
2022-09-28T12:06:18.048Z,99.9
2022-09-28T12:11:19.959Z,99.9
2022-09-28T12:17:10.249Z,99.4
2022-09-28T12:21:22.665Z,98
2022-09-28T12:31:25.571Z,99.9
2022-09-28T12:41:28.221Z,99.9
2022-09-28T12:46:30.568Z,99.9
2022-09-28T12:51:32.804Z,99.9
2022-09-28T12:56:34.900Z,99.9
2022-09-28T13:01:37.080Z,99.9
2022-09-28T13:06:39.628Z,99.9
2022-09-28T13:11:41.698Z,99.9
2022-09-28T13:16:43.611Z,99.9
2022-09-28T13:21:45.993Z,99.9
2022-09-28T13:26:48.134Z,99.9
2022-09-28T13:31:50.058Z,99.9
2022-09-28T13:36:52.198Z,99.9
2022-09-28T13:41:54.178Z,99.9
2022-09-28T13:46:56.302Z,99.9
2022-09-28T13:51:58.261Z,99.9
2022-09-28T13:57:00.419Z,99.9
2022-09-28T14:02:09.610Z,99.9
2022-09-28T14:07:11.884Z,99.9
2022-09-28T14:12:14.305Z,99.9
2022-09-28T14:17:16.288Z,99.9
2022-09-28T14:22:19.314Z,99.9
2022-09-28T14:27:21.280Z,99.9
2022-09-28T14:32:23.162Z,99.9
2022-09-28T14:37:25.098Z,99.9
2022-09-28T14:42:27.015Z,99.9
2022-09-28T14:47:28.903Z,99.9
2022-09-28T14:52:30.950Z,99.9
2022-09-28T14:57:33.446Z,99.9
2022-09-28T15:02:35.426Z,99.9
2022-09-28T15:07:37.539Z,99.9
2022-09-28T15:12:39.722Z,99.9
2022-09-28T15:22:43.639Z,99.9
2022-09-28T15:27:45.803Z,99.9
2022-09-28T15:32:47.760Z,99.9
2022-09-28T15:37:49.985Z,99.9
2022-09-28T15:42:54.811Z,99.9
2022-09-28T15:47:57.940Z,99.9
2022-09-28T15:52:59.868Z,99.9
2022-09-28T15:58:01.844Z,99.9
2022-09-28T16:03:04.073Z,99.9
2022-09-28T16:08:06.860Z,99.9
2022-09-28T16:13:09.123Z,99.9
2022-09-28T16:18:11.147Z,99.9
2022-09-28T16:23:13.910Z,99.9
2022-09-28T16:28:16.021Z,99.9
2022-09-28T16:33:17.905Z,99.9
2022-09-28T16:38:19.995Z,99.9
2022-09-28T16:43:21.961Z,99.9
2022-09-28T16:48:23.830Z,99.9
2022-09-28T16:53:25.958Z,99.9
2022-09-28T16:58:30.401Z,99.9
2022-09-28T17:03:32.969Z,99.9
2022-09-28T17:08:34.919Z,99.9
2022-09-28T17:13:37.503Z,99.9
2022-09-28T17:18:39.485Z,99.9
2022-09-28T17:23:41.423Z,99.9
2022-09-28T17:28:43.497Z,99.9
2022-09-28T17:33:45.466Z,99.9
2022-09-28T17:38:48.082Z,99.9
2022-09-28T17:43:50.034Z,99.9
2022-09-28T17:48:52.066Z,99.9
2022-09-28T17:53:54.384Z,99.9
2022-09-28T17:58:56.710Z,99.9
2022-09-28T18:03:58.672Z,99.9
2022-09-28T18:09:00.705Z,99.9
2022-09-28T18:14:02.702Z,99.9
2022-09-28T18:19:05.368Z,99.9
2022-09-28T18:24:07.547Z,99.9
2022-09-28T18:29:09.549Z,99.9
2022-09-28T18:34:11.589Z,99.9
2022-09-28T18:39:13.647Z,99.9
2022-09-28T18:44:15.894Z,99.9
2022-09-28T18:49:18.565Z,99.9
2022-09-28T18:54:20.714Z,99.9
2022-09-28T18:59:23.137Z,99.9
2022-09-28T19:04:25.189Z,99.9
2022-09-28T19:09:27.801Z,99.9
2022-09-28T19:14:29.786Z,99.9
2022-09-28T19:19:31.739Z,99.9
2022-09-28T19:24:33.810Z,99.9
2022-09-28T19:29:36.407Z,99.9
2022-09-28T19:34:38.335Z,99.9
2022-09-28T19:39:40.376Z,99.9
2022-09-28T19:44:42.376Z,99.9
2022-09-28T19:49:44.353Z,99.9
2022-09-28T19:54:46.501Z,99.9
2022-09-28T20:00:03.837Z,99.9
2022-09-28T20:04:56.174Z,99.9
2022-09-28T20:09:58.126Z,99.9
2022-09-28T20:15:00.206Z,99.9
2022-09-28T20:20:02.383Z,99.9
2022-09-28T20:25:04.563Z,99.9
2022-09-28T20:30:06.648Z,99.9
2022-09-28T20:35:08.606Z,99.9
2022-09-28T20:40:10.608Z,99.9
2022-09-28T20:45:12.546Z,99.9
2022-09-28T20:50:14.440Z,99.9
2022-09-28T20:55:16.458Z,99.9
2022-09-28T21:00:18.408Z,99.9
2022-09-28T21:05:20.391Z,99.9
2022-09-28T21:10:22.352Z,99.9
2022-09-28T21:15:24.474Z,99.9
2022-09-28T21:20:26.671Z,99.9
2022-09-28T21:25:28.646Z,99.9
2022-09-28T21:30:30.775Z,99.9
2022-09-28T21:35:32.678Z,99.9
2022-09-28T21:40:35.229Z,99.9
2022-09-28T21:45:37.247Z,99.9
2022-09-28T21:50:39.202Z,99.9
2022-09-28T21:55:41.154Z,99.9
2022-09-28T22:05:43.496Z,99.9
2022-09-28T22:10:45.960Z,99.9
2022-09-28T22:15:48.252Z,99.9
2022-09-28T22:20:50.189Z,99.9
2022-09-28T22:25:52.126Z,99.9
2022-09-28T22:30:54.413Z,99.9
2022-09-28T22:35:56.383Z,99.9
2022-09-28T22:40:58.549Z,99.9
2022-09-28T22:46:02.154Z,99.9
2022-09-28T22:51:04.237Z,99.9
2022-09-28T22:56:06.287Z,99.9
2022-09-28T23:01:08.621Z,99.9
2022-09-28T23:06:10.571Z,99.9
2022-09-28T23:11:12.705Z,99.9
2022-09-28T23:16:15.582Z,99.9
2022-09-28T23:21:17.624Z,99.9
2022-09-28T23:26:19.759Z,99.9
2022-09-28T23:31:22.125Z,99.9
2022-09-28T23:36:25.248Z,99.9
2022-09-28T23:41:27.245Z,99.9
2022-09-28T23:46:29.425Z,99.9
2022-09-28T23:51:31.453Z,99.9
2022-09-28T23:56:33.357Z,99.9
